Huvudsida
METAR-TAF:

METAR-TAF

Flygplatser :

Caracas, Venezuela

latitud: 10-36N, longitud: 066-59W, höjd: 43 m

Aktuellt väderrapport

Denna rapport gjordes för 40 minuter sedan, klockan 00:00 UTC
Vind 4 kt från sydost
Temperatur 26°C
Fuktighet 89%
Tryck 1010 hPa
Sikt: 9000 m
Mulet på en höjd av 1300 ft
duggregn

METAR: SVMI 150000Z 14004KT 9000 DZ OVC013 26/24 Q1010

Tid: 20:40 (00:40 UTC)

Väderprognos

Denna rapport gjordes för 2 timmar och 40 minuter sedan, klockan 22:00 UTC
Prognos gäller från 15 kl. 00 UTC till 16 kl. 00 UTC
Vind 10 kt från ost
Sikt 10 km eller mer
Få moln på en höjd av 1600 ft
Spridda moln på en höjd av 10000 ft
Temporärt
från 15 kl. 01 UTC till 15 kl. 05 UTC
Vind 7 kt från ost
Sikt: 9000 m
Brutna moln på en höjd av 1600 ft
lätt duggregn

TAF: SVMI 142200Z 1500/1600 09010KT 9999 FEW016 SCT100 TX31/18Z TN24/10Z TEMPO 1501/1505 09007KT 9000 -DZ BKN016

Aktuella väderrapporter och prognoser från 4000 flygplatser (METAR- och TAF-rapporter).

De tillgängliga stationerna syns som gula och röda prickar på kartan.

För musen över prickarna för att se namnen på stationerna.

Klicka sedan för att få väderrapporter och prognoser.

För att ändra kartan: Klicka på de gröna knapparna med ett svart kors på för att zooma in; den gröna knappen med ett streck på för att zooma ut; eller på de gröna pilarna för angränsande kartor.


METAR-TAF: